sensor_id;sensor_type;location;lat;lon;timestamp;pressure;altitude;pressure_sealevel;temperature;humidity
35989;BME280;22064;42.672;23.282;2023-05-29T00:00:26;94450.47;;;13.10;100.00
35989;BME280;22064;42.672;23.282;2023-05-29T00:02:52;94448.13;;;12.93;100.00
35989;BME280;22064;42.672;23.282;2023-05-29T00:05:18;94441.88;;;13.00;100.00
35989;BME280;22064;42.672;23.282;2023-05-29T00:07:44;94457.00;;;13.08;100.00
35989;BME280;22064;42.672;23.282;2023-05-29T00:10:11;94456.50;;;12.90;100.00
35989;BME280;22064;42.672;23.282;2023-05-29T00:12:37;94458.28;;;12.80;100.00
35989;BME280;22064;42.672;23.282;2023-05-29T00:15:04;94464.06;;;12.92;100.00
35989;BME280;22064;42.672;23.282;2023-05-29T00:17:30;94458.88;;;13.02;100.00
35989;BME280;22064;42.672;23.282;2023-05-29T00:20:00;94465.66;;;13.13;100.00
35989;BME280;22064;42.672;23.282;2023-05-29T00:22:34;94463.81;;;13.19;100.00
35989;BME280;22064;42.672;23.282;2023-05-29T00:25:05;94461.75;;;13.21;100.00
35989;BME280;22064;42.672;23.282;2023-05-29T00:27:32;94455.19;;;13.24;100.00
35989;BME280;22064;42.672;23.282;2023-05-29T00:30:01;94458.31;;;13.10;100.00
35989;BME280;22064;42.672;23.282;2023-05-29T00:32:29;94464.38;;;13.26;100.00
35989;BME280;22064;42.672;23.282;2023-05-29T00:34:55;94470.38;;;13.32;100.00
35989;BME280;22064;42.672;23.282;2023-05-29T00:37:21;94454.41;;;13.23;100.00
35989;BME280;22064;42.672;23.282;2023-05-29T00:39:48;94462.25;;;13.38;100.00
35989;BME280;22064;42.672;23.282;2023-05-29T00:42:14;94429.31;;;13.22;100.00
35989;BME280;22064;42.672;23.282;2023-05-29T00:44:40;94448.69;;;13.36;100.00
35989;BME280;22064;42.672;23.282;2023-05-29T00:47:06;94455.44;;;13.58;100.00
35989;BME280;22064;42.672;23.282;2023-05-29T00:49:34;94454.38;;;13.64;100.00
35989;BME280;22064;42.672;23.282;2023-05-29T00:52:01;94453.88;;;13.62;100.00
35989;BME280;22064;42.672;23.282;2023-05-29T00:54:29;94458.28;;;13.67;100.00
35989;BME280;22064;42.672;23.282;2023-05-29T00:56:57;94449.66;;;13.71;100.00
35989;BME280;22064;42.672;23.282;2023-05-29T00:59:26;94453.88;;;13.57;100.00
35989;BME280;22064;42.672;23.282;2023-05-29T01:01:52;94440.56;;;13.43;100.00
35989;BME280;22064;42.672;23.282;2023-05-29T01:04:20;94443.19;;;13.43;100.00
35989;BME280;22064;42.672;23.282;2023-05-29T01:06:46;94445.00;;;13.37;100.00
35989;BME280;22064;42.672;23.282;2023-05-29T01:09:12;94437.94;;;13.33;100.00
35989;BME280;22064;42.672;23.282;2023-05-29T01:17:21;94441.59;;;12.91;100.00
35989;BME280;22064;42.672;23.282;2023-05-29T01:28:15;94451.00;;;12.71;100.00
35989;BME280;22064;42.672;23.282;2023-05-29T01:30:46;94454.88;;;12.64;100.00
35989;BME280;22064;42.672;23.282;2023-05-29T01:33:13;94441.53;;;12.50;100.00
35989;BME280;22064;42.672;23.282;2023-05-29T01:35:39;94451.47;;;12.43;100.00
35989;BME280;22064;42.672;23.282;2023-05-29T01:38:05;94444.16;;;12.55;100.00
35989;BME280;22064;42.672;23.282;2023-05-29T01:40:31;94453.31;;;12.58;100.00
35989;BME280;22064;42.672;23.282;2023-05-29T01:42:57;94449.94;;;12.73;100.00
35989;BME280;22064;42.672;23.282;2023-05-29T01:45:23;94441.59;;;12.81;100.00
35989;BME280;22064;42.672;23.282;2023-05-29T01:47:49;94444.72;;;12.83;100.00
35989;BME280;22064;42.672;23.282;2023-05-29T01:50:18;94446.31;;;12.94;100.00
35989;BME280;22064;42.672;23.282;2023-05-29T01:52:44;94452.06;;;12.81;100.00
35989;BME280;22064;42.672;23.282;2023-05-29T01:55:11;94445.75;;;12.77;100.00
35989;BME280;22064;42.672;23.282;2023-05-29T01:57:37;94452.06;;;13.01;100.00
35989;BME280;22064;42.672;23.282;2023-05-29T02:00:04;94442.63;;;13.10;100.00
35989;BME280;22064;42.672;23.282;2023-05-29T02:02:40;94439.50;;;13.24;100.00
35989;BME280;22064;42.672;23.282;2023-05-29T02:05:08;94446.31;;;13.35;100.00
35989;BME280;22064;42.672;23.282;2023-05-29T02:07:35;94449.44;;;13.42;100.00
35989;BME280;22064;42.672;23.282;2023-05-29T02:10:05;94446.84;;;13.52;100.00
35989;BME280;22064;42.672;23.282;2023-05-29T02:12:32;94438.19;;;13.62;100.00
35989;BME280;22064;42.672;23.282;2023-05-29T02:14:58;94441.81;;;13.61;100.00
35989;BME280;22064;42.672;23.282;2023-05-29T02:17:23;94430.81;;;13.64;100.00
35989;BME280;22064;42.672;23.282;2023-05-29T02:19:50;94430.81;;;13.64;100.00
35989;BME280;22064;42.672;23.282;2023-05-29T02:22:17;94433.19;;;13.71;100.00
35989;BME280;22064;42.672;23.282;2023-05-29T02:24:43;94428.50;;;13.68;100.00
35989;BME280;22064;42.672;23.282;2023-05-29T02:27:09;94428.22;;;13.74;100.00
35989;BME280;22064;42.672;23.282;2023-05-29T02:29:35;94422.97;;;13.64;100.00
35989;BME280;22064;42.672;23.282;2023-05-29T02:32:01;94431.63;;;13.65;100.00
35989;BME280;22064;42.672;23.282;2023-05-29T02:34:27;94426.41;;;13.54;100.00
35989;BME280;22064;42.672;23.282;2023-05-29T02:36:53;94433.25;;;13.35;100.00
35989;BME280;22064;42.672;23.282;2023-05-29T02:39:20;94443.69;;;13.30;100.00
35989;BME280;22064;42.672;23.282;2023-05-29T02:41:46;94442.66;;;13.15;100.00
35989;BME280;22064;42.672;23.282;2023-05-29T02:44:12;94441.31;;;13.08;100.00
35989;BME280;22064;42.672;23.282;2023-05-29T02:46:38;94435.34;;;13.02;100.00
35989;BME280;22064;42.672;23.282;2023-05-29T02:49:04;94439.75;;;13.02;100.00
35989;BME280;22064;42.672;23.282;2023-05-29T02:51:30;94439.50;;;13.13;100.00
35989;BME280;22064;42.672;23.282;2023-05-29T02:53:58;94431.16;;;13.06;100.00
35989;BME280;22064;42.672;23.282;2023-05-29T02:56:25;94437.94;;;13.33;100.00
35989;BME280;22064;42.672;23.282;2023-05-29T02:58:51;94436.38;;;13.37;100.00
35989;BME280;22064;42.672;23.282;2023-05-29T03:01:17;94444.22;;;13.27;100.00
35989;BME280;22064;42.672;23.282;2023-05-29T03:03:43;94443.44;;;13.26;100.00
35989;BME280;22064;42.672;23.282;2023-05-29T03:06:10;94434.81;;;13.15;100.00
35989;BME280;22064;42.672;23.282;2023-05-29T03:08:39;94445.78;;;13.17;100.00
35989;BME280;22064;42.672;23.282;2023-05-29T03:11:09;94446.28;;;13.14;100.00
35989;BME280;22064;42.672;23.282;2023-05-29T03:13:37;94443.94;;;13.23;100.00
35989;BME280;22064;42.672;23.282;2023-05-29T03:16:06;94452.59;;;13.39;100.00
35989;BME280;22064;42.672;23.282;2023-05-29T03:18:34;94445.81;;;13.43;100.00
35989;BME280;22064;42.672;23.282;2023-05-29T03:21:01;94443.69;;;13.55;100.00
35989;BME280;22064;42.672;23.282;2023-05-29T03:23:27;94442.63;;;13.56;100.00
35989;BME280;22064;42.672;23.282;2023-05-29T03:25:54;94438.44;;;13.66;100.00
35989;BME280;22064;42.672;23.282;2023-05-29T03:28:20;94438.44;;;13.71;100.00
35989;BME280;22064;42.672;23.282;2023-05-29T03:30:46;94449.88;;;13.90;100.00
35989;BME280;22064;42.672;23.282;2023-05-29T03:33:15;94432.88;;;13.93;100.00
35989;BME280;22064;42.672;23.282;2023-05-29T03:36:17;94444.06;;;14.08;100.00
35989;BME280;22064;42.672;23.282;2023-05-29T03:38:43;94450.03;;;14.19;100.00
35989;BME280;22064;42.672;23.282;2023-05-29T03:41:09;94455.22;;;14.29;100.00
35989;BME280;22064;42.672;23.282;2023-05-29T03:43:36;94472.75;;;14.39;100.00
35989;BME280;22064;42.672;23.282;2023-05-29T03:46:02;94469.59;;;14.32;100.00
35989;BME280;22064;42.672;23.282;2023-05-29T03:48:30;94450.72;;;14.40;100.00
35989;BME280;22064;42.672;23.282;2023-05-29T03:50:56;94457.22;;;14.48;100.00
35989;BME280;22064;42.672;23.282;2023-05-29T03:53:29;94466.94;;;14.52;100.00
35989;BME280;22064;42.672;23.282;2023-05-29T03:55:55;94460.09;;;14.51;100.00
35989;BME280;22064;42.672;23.282;2023-05-29T03:58:21;94458.81;;;14.49;100.00
35989;BME280;22064;42.672;23.282;2023-05-29T04:00:47;94470.72;;;14.75;100.00
35989;BME280;22064;42.672;23.282;2023-05-29T04:03:15;94473.78;;;14.93;100.00
35989;BME280;22064;42.672;23.282;2023-05-29T04:05:41;94475.78;;;15.01;100.00
35989;BME280;22064;42.672;23.282;2023-05-29T04:08:08;94473.81;;;15.22;100.00
35989;BME280;22064;42.672;23.282;2023-05-29T04:10:36;94479.72;;;15.38;100.00
35989;BME280;22064;42.672;23.282;2023-05-29T04:13:02;94474.94;;;15.45;100.00
35989;BME280;22064;42.672;23.282;2023-05-29T04:15:28;94476.41;;;15.56;100.00
35989;BME280;22064;42.672;23.282;2023-05-29T04:17:54;94495.06;;;15.55;100.00
35989;BME280;22064;42.672;23.282;2023-05-29T04:20:21;94486.50;;;15.44;100.00
35989;BME280;22064;42.672;23.282;2023-05-29T04:22:47;94480.72;;;15.42;100.00
35989;BME280;22064;42.672;23.282;2023-05-29T04:25:13;94482.72;;;15.55;100.00
35989;BME280;22064;42.672;23.282;2023-05-29T04:27:39;94479.50;;;15.63;100.00
35989;BME280;22064;42.672;23.282;2023-05-29T04:30:08;94476.59;;;15.65;100.00
35989;BME280;22064;42.672;23.282;2023-05-29T04:32:38;94478.59;;;15.78;100.00
35989;BME280;22064;42.672;23.282;2023-05-29T04:35:06;94492.00;;;16.01;100.00
35989;BME280;22064;42.672;23.282;2023-05-29T04:37:35;94486.13;;;16.14;100.00
35989;BME280;22064;42.672;23.282;2023-05-29T04:40:06;94495.81;;;16.13;100.00
35989;BME280;22064;42.672;23.282;2023-05-29T04:42:36;94485.97;;;16.00;100.00
35989;BME280;22064;42.672;23.282;2023-05-29T04:45:03;94487.94;;;16.13;100.00
35989;BME280;22064;42.672;23.282;2023-05-29T04:47:33;94491.13;;;16.34;100.00
35989;BME280;22064;42.672;23.282;2023-05-29T04:50:00;94494.25;;;16.36;100.00
35989;BME280;22064;42.672;23.282;2023-05-29T04:52:26;94487.75;;;16.29;100.00
35989;BME280;22064;42.672;23.282;2023-05-29T04:54:54;94492.03;;;16.25;100.00
35989;BME280;22064;42.672;23.282;2023-05-29T04:57:20;94505.44;;;16.23;100.00
35989;BME280;22064;42.672;23.282;2023-05-29T04:59:47;94496.66;;;16.09;100.00
35989;BME280;22064;42.672;23.282;2023-05-29T05:02:14;94503.13;;;16.16;100.00
35989;BME280;22064;42.672;23.282;2023-05-29T05:04:40;94518.34;;;16.20;100.00
35989;BME280;22064;42.672;23.282;2023-05-29T05:07:06;94513.38;;;16.18;100.00
35989;BME280;22064;42.672;23.282;2023-05-29T05:09:32;94503.66;;;16.19;100.00
35989;BME280;22064;42.672;23.282;2023-05-29T05:11:58;94531.16;;;16.26;100.00
35989;BME280;22064;42.672;23.282;2023-05-29T05:14:24;94521.59;;;16.35;100.00
35989;BME280;22064;42.672;23.282;2023-05-29T05:16:50;94521.66;;;16.30;100.00
35989;BME280;22064;42.672;23.282;2023-05-29T05:19:16;94524.53;;;16.53;100.00
35989;BME280;22064;42.672;23.282;2023-05-29T05:21:43;94531.69;;;16.71;100.00
35989;BME280;22064;42.672;23.282;2023-05-29T05:24:09;94536.25;;;16.84;100.00
35989;BME280;22064;42.672;23.282;2023-05-29T05:26:39;94511.53;;;16.43;100.00
35989;BME280;22064;42.672;23.282;2023-05-29T05:29:05;94533.22;;;16.72;100.00
35989;BME280;22064;42.672;23.282;2023-05-29T05:31:33;94534.00;;;16.97;100.00
35989;BME280;22064;42.672;23.282;2023-05-29T05:33:59;94530.78;;;17.00;100.00
35989;BME280;22064;42.672;23.282;2023-05-29T05:36:25;94525.31;;;17.15;100.00
35989;BME280;22064;42.672;23.282;2023-05-29T05:38:59;94524.69;;;17.23;100.00
35989;BME280;22064;42.672;23.282;2023-05-29T05:41:26;94529.59;;;17.30;100.00
35989;BME280;22064;42.672;23.282;2023-05-29T05:43:53;94541.06;;;17.53;100.00
35989;BME280;22064;42.672;23.282;2023-05-29T05:46:28;94531.00;;;17.74;100.00
35989;BME280;22064;42.672;23.282;2023-05-29T05:48:54;94541.44;;;17.98;100.00
35989;BME280;22064;42.672;23.282;2023-05-29T05:51:23;94534.09;;;18.09;100.00
35989;BME280;22064;42.672;23.282;2023-05-29T05:53:51;94541.03;;;18.05;100.00
35989;BME280;22064;42.672;23.282;2023-05-29T05:56:16;94537.91;;;18.03;100.00
35989;BME280;22064;42.672;23.282;2023-05-29T05:58:43;94548.63;;;18.06;100.00
35989;BME280;22064;42.672;23.282;2023-05-29T06:01:10;94542.38;;;17.88;100.00
35989;BME280;22064;42.672;23.282;2023-05-29T06:03:36;94546.94;;;18.29;100.00
35989;BME280;22064;42.672;23.282;2023-05-29T06:06:06;94532.88;;;18.48;100.00
35989;BME280;22064;42.672;23.282;2023-05-29T06:08:34;94527.38;;;18.72;100.00
35989;BME280;22064;42.672;23.282;2023-05-29T06:11:00;94534.97;;;19.01;100.00
35989;BME280;22064;42.672;23.282;2023-05-29T06:13:28;94534.53;;;18.85;100.00
35989;BME280;22064;42.672;23.282;2023-05-29T06:15:59;94531.94;;;18.93;100.00
35989;BME280;22064;42.672;23.282;2023-05-29T06:18:25;94545.50;;;19.14;100.00
35989;BME280;22064;42.672;23.282;2023-05-29T06:20:51;94553.19;;;19.25;100.00
35989;BME280;22064;42.672;23.282;2023-05-29T06:23:17;94551.03;;;18.49;100.00
35989;BME280;22064;42.672;23.282;2023-05-29T06:25:43;94552.09;;;18.48;100.00
35989;BME280;22064;42.672;23.282;2023-05-29T06:28:09;94551.19;;;18.11;100.00
35989;BME280;22064;42.672;23.282;2023-05-29T06:30:34;94560.47;;;18.50;100.00
35989;BME280;22064;42.672;23.282;2023-05-29T06:33:04;94560.59;;;18.59;100.00
35989;BME280;22064;42.672;23.282;2023-05-29T06:35:31;94554.94;;;18.52;100.00
35989;BME280;22064;42.672;23.282;2023-05-29T06:37:58;94543.97;;;18.72;100.00
35989;BME280;22064;42.672;23.282;2023-05-29T06:40:24;94544.81;;;18.73;100.00
35989;BME280;22064;42.672;23.282;2023-05-29T06:42:50;94546.84;;;19.48;100.00
35989;BME280;22064;42.672;23.282;2023-05-29T06:45:16;94547.72;;;19.80;100.00
35989;BME280;22064;42.672;23.282;2023-05-29T06:47:43;94553.22;;;20.23;100.00
35989;BME280;22064;42.672;23.282;2023-05-29T06:50:10;94551.28;;;19.84;100.00
35989;BME280;22064;42.672;23.282;2023-05-29T06:52:37;94556.31;;;19.49;100.00
35989;BME280;22064;42.672;23.282;2023-05-29T06:55:41;94546.44;;;19.77;100.00
35989;BME280;22064;42.672;23.282;2023-05-29T06:58:08;94555.47;;;20.07;100.00
35989;BME280;22064;42.672;23.282;2023-05-29T07:00:34;94550.53;;;20.15;100.00
35989;BME280;22064;42.672;23.282;2023-05-29T07:03:20;94548.44;;;19.94;100.00
35989;BME280;22064;42.672;23.282;2023-05-29T07:05:46;94555.75;;;19.97;100.00
35989;BME280;22064;42.672;23.282;2023-05-29T07:08:12;94551.09;;;20.34;100.00
35989;BME280;22064;42.672;23.282;2023-05-29T07:10:38;94547.81;;;20.60;100.00
35989;BME280;22064;42.672;23.282;2023-05-29T07:13:04;94544.47;;;20.14;100.00
35989;BME280;22064;42.672;23.282;2023-05-29T07:15:32;94543.84;;;19.41;100.00
35989;BME280;22064;42.672;23.282;2023-05-29T07:17:58;94535.66;;;19.96;100.00
35989;BME280;22064;42.672;23.282;2023-05-29T07:20:26;94560.88;;;20.56;100.00
35989;BME280;22064;42.672;23.282;2023-05-29T07:22:52;94547.53;;;19.76;100.00
35989;BME280;22064;42.672;23.282;2023-05-29T07:25:18;94560.22;;;20.19;100.00
35989;BME280;22064;42.672;23.282;2023-05-29T07:27:44;94542.69;;;20.32;100.00
35989;BME280;22064;42.672;23.282;2023-05-29T07:30:10;94543.63;;;20.36;100.00
35989;BME280;22064;42.672;23.282;2023-05-29T07:32:37;94539.63;;;20.47;100.00
35989;BME280;22064;42.672;23.282;2023-05-29T07:35:03;94543.16;;;20.34;100.00
35989;BME280;22064;42.672;23.282;2023-05-29T07:37:29;94542.91;;;20.44;100.00
35989;BME280;22064;42.672;23.282;2023-05-29T07:39:56;94552.47;;;19.55;100.00
35989;BME280;22064;42.672;23.282;2023-05-29T07:42:43;94540.47;;;18.63;100.00
35989;BME280;22064;42.672;23.282;2023-05-29T07:45:09;94554.63;;;18.53;100.00
35989;BME280;22064;42.672;23.282;2023-05-29T07:47:35;94549.53;;;18.70;100.00
35989;BME280;22064;42.672;23.282;2023-05-29T07:50:01;94555.09;;;19.10;100.00
35989;BME280;22064;42.672;23.282;2023-05-29T07:52:28;94550.94;;;19.54;100.00
35989;BME280;22064;42.672;23.282;2023-05-29T07:54:54;94543.94;;;19.72;100.00
35989;BME280;22064;42.672;23.282;2023-05-29T07:57:22;94542.00;;;20.18;100.00
35989;BME280;22064;42.672;23.282;2023-05-29T07:59:50;94546.25;;;20.67;100.00
35989;BME280;22064;42.672;23.282;2023-05-29T08:02:16;94541.66;;;20.90;100.00
35989;BME280;22064;42.672;23.282;2023-05-29T08:05:03;94538.38;;;20.93;100.00
35989;BME280;22064;42.672;23.282;2023-05-29T08:07:29;94538.69;;;21.18;100.00
35989;BME280;22064;42.672;23.282;2023-05-29T08:09:56;94535.63;;;21.42;100.00
35989;BME280;22064;42.672;23.282;2023-05-29T08:12:22;94541.22;;;21.75;100.00
35989;BME280;22064;42.672;23.282;2023-05-29T08:14:50;94538.09;;;21.64;100.00
35989;BME280;22064;42.672;23.282;2023-05-29T08:17:16;94530.75;;;21.70;100.00
35989;BME280;22064;42.672;23.282;2023-05-29T08:19:42;94535.91;;;21.75;100.00
35989;BME280;22064;42.672;23.282;2023-05-29T08:22:12;94550.16;;;22.18;100.00
35989;BME280;22064;42.672;23.282;2023-05-29T08:24:38;94550.25;;;22.39;100.00
35989;BME280;22064;42.672;23.282;2023-05-29T08:27:04;94557.09;;;22.48;100.00
35989;BME280;22064;42.672;23.282;2023-05-29T08:29:30;94552.91;;;21.39;100.00
35989;BME280;22064;42.672;23.282;2023-05-29T08:31:56;94563.81;;;20.55;100.00
35989;BME280;22064;42.672;23.282;2023-05-29T08:34:22;94555.03;;;19.83;100.00
35989;BME280;22064;42.672;23.282;2023-05-29T08:36:48;94553.34;;;19.65;100.00
35989;BME280;22064;42.672;23.282;2023-05-29T08:39:14;94541.84;;;19.47;100.00
35989;BME280;22064;42.672;23.282;2023-05-29T08:44:22;94554.84;;;19.79;100.00
35989;BME280;22064;42.672;23.282;2023-05-29T08:47:01;94550.22;;;19.85;100.00
35989;BME280;22064;42.672;23.282;2023-05-29T08:49:29;94536.44;;;19.97;100.00
35989;BME280;22064;42.672;23.282;2023-05-29T08:52:09;94527.88;;;19.91;100.00
35989;BME280;22064;42.672;23.282;2023-05-29T08:54:37;94536.75;;;20.26;100.00
35989;BME280;22064;42.672;23.282;2023-05-29T08:57:03;94536.13;;;20.61;100.00
35989;BME280;22064;42.672;23.282;2023-05-29T08:59:30;94528.88;;;20.92;100.00
35989;BME280;22064;42.672;23.282;2023-05-29T09:01:56;94527.66;;;21.16;100.00
35989;BME280;22064;42.672;23.282;2023-05-29T09:04:22;94526.22;;;21.79;100.00
35989;BME280;22064;42.672;23.282;2023-05-29T09:06:49;94521.47;;;22.11;97.39
35989;BME280;22064;42.672;23.282;2023-05-29T09:09:15;94530.19;;;22.20;91.86
35989;BME280;22064;42.672;23.282;2023-05-29T09:11:41;94530.28;;;21.68;95.20
35989;BME280;22064;42.672;23.282;2023-05-29T09:14:35;94515.63;;;21.71;99.35
35989;BME280;22064;42.672;23.282;2023-05-29T09:17:02;94517.97;;;21.81;100.00
35989;BME280;22064;42.672;23.282;2023-05-29T09:19:29;94514.50;;;21.98;95.30
35989;BME280;22064;42.672;23.282;2023-05-29T09:22:02;94513.06;;;22.56;86.86
35989;BME280;22064;42.672;23.282;2023-05-29T09:24:29;94505.44;;;22.75;76.08
35989;BME280;22064;42.672;23.282;2023-05-29T09:26:56;94503.50;;;22.85;72.83
35989;BME280;22064;42.672;23.282;2023-05-29T09:29:24;94504.31;;;22.17;76.49
35989;BME280;22064;42.672;23.282;2023-05-29T09:31:50;94497.13;;;22.18;82.40
35989;BME280;22064;42.672;23.282;2023-05-29T09:34:16;94496.66;;;22.24;78.71
35989;BME280;22064;42.672;23.282;2023-05-29T09:36:42;94500.22;;;22.28;80.64
35989;BME280;22064;42.672;23.282;2023-05-29T09:39:07;94495.75;;;22.50;80.89
35989;BME280;22064;42.672;23.282;2023-05-29T09:41:42;94501.78;;;22.29;79.54
35989;BME280;22064;42.672;23.282;2023-05-29T09:44:11;94491.34;;;22.16;79.17
35989;BME280;22064;42.672;23.282;2023-05-29T09:46:42;94480.44;;;22.08;80.52
35989;BME280;22064;42.672;23.282;2023-05-29T09:49:12;94486.84;;;22.16;83.48
35989;BME280;22064;42.672;23.282;2023-05-29T09:51:39;94489.06;;;22.44;80.24
35989;BME280;22064;42.672;23.282;2023-05-29T09:54:17;94474.41;;;22.67;75.30
35989;BME280;22064;42.672;23.282;2023-05-29T09:56:44;94481.22;;;22.56;73.74
35989;BME280;22064;42.672;23.282;2023-05-29T09:59:12;94470.03;;;22.71;74.71
35989;BME280;22064;42.672;23.282;2023-05-29T10:01:40;94465.38;;;22.89;72.20
35989;BME280;22064;42.672;23.282;2023-05-29T10:04:08;94471.31;;;23.49;73.83
35989;BME280;22064;42.672;23.282;2023-05-29T10:06:38;94475.91;;;23.27;69.42
35989;BME280;22064;42.672;23.282;2023-05-29T10:09:09;94467.50;;;23.38;66.35
35989;BME280;22064;42.672;23.282;2023-05-29T10:11:37;94483.63;;;23.33;68.13
35989;BME280;22064;42.672;23.282;2023-05-29T10:14:05;94468.69;;;23.07;73.29
35989;BME280;22064;42.672;23.282;2023-05-29T10:16:33;94461.31;;;23.34;71.81
35989;BME280;22064;42.672;23.282;2023-05-29T10:19:04;94465.31;;;23.73;70.81
35989;BME280;22064;42.672;23.282;2023-05-29T10:21:36;94458.78;;;23.16;67.44
35989;BME280;22064;42.672;23.282;2023-05-29T10:24:05;94477.25;;;23.34;69.20
35989;BME280;22064;42.672;23.282;2023-05-29T10:26:36;94469.59;;;23.65;65.72
35989;BME280;22064;42.672;23.282;2023-05-29T10:29:17;94468.50;;;24.24;61.57
35989;BME280;22064;42.672;23.282;2023-05-29T10:35:05;94454.94;;;25.31;58.00
35989;BME280;22064;42.672;23.282;2023-05-29T10:37:47;94443.53;;;25.46;54.78
35989;BME280;22064;42.672;23.282;2023-05-29T10:40:15;94454.16;;;24.90;54.56
35989;BME280;22064;42.672;23.282;2023-05-29T10:42:47;94461.69;;;24.88;54.73
35989;BME280;22064;42.672;23.282;2023-05-29T10:50:41;94448.28;;;24.72;53.04
35989;BME280;22064;42.672;23.282;2023-05-29T10:53:07;94435.59;;;24.94;51.80
35989;BME280;22064;42.672;23.282;2023-05-29T10:55:40;94440.78;;;25.02;51.18
35989;BME280;22064;42.672;23.282;2023-05-29T10:58:12;94430.16;;;24.50;52.20
35989;BME280;22064;42.672;23.282;2023-05-29T11:00:42;94428.91;;;24.23;54.58
35989;BME280;22064;42.672;23.282;2023-05-29T11:03:09;94445.63;;;24.11;55.88
35989;BME280;22064;42.672;23.282;2023-05-29T11:05:35;94428.34;;;23.92;58.74
35989;BME280;22064;42.672;23.282;2023-05-29T11:08:03;94428.81;;;24.07;59.77
35989;BME280;22064;42.672;23.282;2023-05-29T11:13:33;94436.13;;;23.64;60.83
35989;BME280;22064;42.672;23.282;2023-05-29T11:18:56;94413.41;;;23.55;60.67
35989;BME280;22064;42.672;23.282;2023-05-29T11:21:46;94427.25;;;23.93;60.72
35989;BME280;22064;42.672;23.282;2023-05-29T11:24:25;94422.72;;;24.06;66.10
35989;BME280;22064;42.672;23.282;2023-05-29T11:26:53;94412.28;;;24.01;69.99
35989;BME280;22064;42.672;23.282;2023-05-29T11:29:24;94411.63;;;24.16;71.54
35989;BME280;22064;42.672;23.282;2023-05-29T11:32:04;94418.13;;;24.80;64.10
35989;BME280;22064;42.672;23.282;2023-05-29T11:34:30;94413.72;;;24.60;62.98
35989;BME280;22064;42.672;23.282;2023-05-29T11:37:00;94408.19;;;24.53;64.71
35989;BME280;22064;42.672;23.282;2023-05-29T11:39:26;94419.69;;;24.69;62.77
35989;BME280;22064;42.672;23.282;2023-05-29T11:41:53;94398.53;;;24.48;65.15
35989;BME280;22064;42.672;23.282;2023-05-29T11:44:20;94416.16;;;24.40;65.42
35989;BME280;22064;42.672;23.282;2023-05-29T11:46:46;94404.81;;;25.08;61.79
35989;BME280;22064;42.672;23.282;2023-05-29T11:49:12;94402.81;;;25.18;58.13
35989;BME280;22064;42.672;23.282;2023-05-29T11:51:41;94384.47;;;25.60;58.23
35989;BME280;22064;42.672;23.282;2023-05-29T11:54:07;94402.78;;;26.41;54.06
35989;BME280;22064;42.672;23.282;2023-05-29T11:56:33;94395.97;;;26.43;52.77
35989;BME280;22064;42.672;23.282;2023-05-29T11:58:59;94391.44;;;26.79;48.98
35989;BME280;22064;42.672;23.282;2023-05-29T12:01:26;94392.03;;;25.42;48.72
35989;BME280;22064;42.672;23.282;2023-05-29T12:03:54;94394.91;;;25.21;51.32
35989;BME280;22064;42.672;23.282;2023-05-29T12:06:35;94388.06;;;24.80;52.39
35989;BME280;22064;42.672;23.282;2023-05-29T12:09:04;94386.69;;;24.33;55.44
35989;BME280;22064;42.672;23.282;2023-05-29T12:11:31;94387.22;;;24.39;57.87
35989;BME280;22064;42.672;23.282;2023-05-29T12:14:00;94399.31;;;23.75;65.15
35989;BME280;22064;42.672;23.282;2023-05-29T12:16:28;94403.38;;;22.94;88.54
35989;BME280;22064;42.672;23.282;2023-05-29T12:18:55;94407.47;;;22.41;100.00
35989;BME280;22064;42.672;23.282;2023-05-29T12:21:22;94397.09;;;21.97;100.00
35989;BME280;22064;42.672;23.282;2023-05-29T12:23:48;94420.75;;;21.55;100.00
35989;BME280;22064;42.672;23.282;2023-05-29T12:26:14;94435.72;;;21.34;100.00
35989;BME280;22064;42.672;23.282;2023-05-29T12:28:48;94441.94;;;20.51;100.00
35989;BME280;22064;42.672;23.282;2023-05-29T12:31:26;94445.03;;;20.36;100.00
35989;BME280;22064;42.672;23.282;2023-05-29T12:33:53;94436.84;;;20.55;100.00
35989;BME280;22064;42.672;23.282;2023-05-29T12:36:19;94446.19;;;20.69;100.00
35989;BME280;22064;42.672;23.282;2023-05-29T12:38:51;94467.63;;;20.50;100.00
35989;BME280;22064;42.672;23.282;2023-05-29T12:41:33;94459.44;;;19.81;100.00
35989;BME280;22064;42.672;23.282;2023-05-29T12:44:01;94468.59;;;19.30;100.00
35989;BME280;22064;42.672;23.282;2023-05-29T12:46:35;94473.94;;;18.66;100.00
35989;BME280;22064;42.672;23.282;2023-05-29T12:49:16;94465.56;;;18.50;100.00
35989;BME280;22064;42.672;23.282;2023-05-29T12:51:43;94471.31;;;18.80;100.00
35989;BME280;22064;42.672;23.282;2023-05-29T12:54:13;94454.00;;;18.87;100.00
35989;BME280;22064;42.672;23.282;2023-05-29T12:56:40;94455.22;;;19.04;100.00
35989;BME280;22064;42.672;23.282;2023-05-29T12:59:07;94464.78;;;19.00;100.00
35989;BME280;22064;42.672;23.282;2023-05-29T13:01:34;94462.06;;;19.05;100.00
35989;BME280;22064;42.672;23.282;2023-05-29T13:04:00;94455.34;;;19.21;100.00
35989;BME280;22064;42.672;23.282;2023-05-29T13:06:26;94459.66;;;19.39;100.00
35989;BME280;22064;42.672;23.282;2023-05-29T13:08:52;94454.81;;;19.87;100.00
35989;BME280;22064;42.672;23.282;2023-05-29T13:11:18;94444.84;;;20.32;100.00
35989;BME280;22064;42.672;23.282;2023-05-29T13:13:44;94460.53;;;20.94;100.00
35989;BME280;22064;42.672;23.282;2023-05-29T13:16:10;94464.09;;;21.59;100.00
35989;BME280;22064;42.672;23.282;2023-05-29T13:18:36;94457.22;;;22.05;100.00